Time;durP1;ratioP1;P1;durP2;ratioP2;P2;SDS_P1;SDS_P2;PMS_P1;PMS_P2;Temp;Humidity;BMP_temperature;BMP_pressure;BME280_temperature;BME280_humidity;BME280_pressure;Samples;Min_cycle;Max_cycle;Signal;HPM_P1;HPM_P2
2022/06/14 00:03:12;;;;;;;8.93;4.20;;;;;;;13.40;65.67;96218.72;4937752;29;20229;-80
2022/06/14 00:05:37;;;;;;;5.73;3.60;;;;;;;13.25;66.58;96213.22;4937832;29;20540;-80
2022/06/14 00:08:03;;;;;;;5.83;3.60;;;;;;;13.23;66.47;96222.94;4921738;29;20206;-80
2022/06/14 00:10:28;;;;;;;4.30;3.77;;;;;;;13.16;66.85;96219.25;4920812;29;20642;-80
2022/06/14 00:12:54;;;;;;;6.37;4.10;;;;;;;13.07;67.73;96214.09;4920672;29;20244;-80
2022/06/14 00:15:19;;;;;;;8.20;4.00;;;;;;;13.16;66.79;96214.03;4937770;29;20305;-80
2022/06/14 00:17:45;;;;;;;8.87;4.30;;;;;;;13.13;67.34;96214.34;4920602;29;20174;-79
2022/06/14 00:20:11;;;;;;;8.23;4.20;;;;;;;13.07;67.58;96209.72;4936264;29;20201;-79
2022/06/14 00:22:37;;;;;;;9.37;4.23;;;;;;;13.01;68.38;96215.53;4921059;29;20186;-80
2022/06/14 00:25:03;;;;;;;7.50;4.50;;;;;;;13.02;67.58;96211.94;4921118;29;20182;-79
2022/06/14 00:27:28;;;;;;;4.87;4.10;;;;;;;13.03;67.66;96210.97;4940045;28;20201;-79
2022/06/14 00:29:54;;;;;;;10.73;4.50;;;;;;;13.01;67.56;96207.72;4940244;29;20205;-79
2022/06/14 00:32:19;;;;;;;8.70;4.00;;;;;;;13.02;67.74;96210.16;4924069;29;20193;-80
2022/06/14 00:34:44;;;;;;;7.73;4.50;;;;;;;13.00;67.10;96214.72;4938914;29;20197;-80
2022/06/14 00:37:15;;;;;;;11.53;3.70;;;;;;;13.01;67.48;96220.75;4930577;29;20193;-78
2022/06/14 00:39:40;;;;;;;8.33;3.83;;;;;;;12.98;67.34;96215.78;4940163;29;20272;-78
2022/06/14 00:42:05;;;;;;;8.10;4.20;;;;;;;12.92;67.50;96209.41;4935923;28;20205;-79
2022/06/14 00:44:31;;;;;;;9.17;3.67;;;;;;;12.94;67.28;96215.28;4966312;28;20660;-79
2022/06/14 00:47:03;;;;;;;9.30;4.43;;;;;;;12.89;67.84;96208.84;4966200;28;20197;-79
2022/06/14 00:49:31;;;;;;;7.10;3.90;;;;;;;12.87;67.93;96206.41;4965126;28;20572;-79
2022/06/14 00:52:30;;;;;;;9.53;4.00;;;;;;;12.85;67.81;96199.69;4947656;29;20270;-80
2022/06/14 00:55:00;;;;;;;8.53;4.20;;;;;;;12.79;68.06;96200.28;4935957;29;20197;-80
2022/06/14 00:57:27;;;;;;;7.20;3.57;;;;;;;12.75;68.26;96197.97;4930336;29;20189;-79
2022/06/14 00:59:57;;;;;;;5.80;4.20;;;;;;;12.72;68.02;96193.06;4945370;29;20202;-80
2022/06/14 01:02:29;;;;;;;5.13;3.53;;;;;;;12.69;68.05;96198.53;4922232;29;20225;-80
2022/06/14 01:04:56;;;;;;;5.20;3.57;;;;;;;12.67;68.17;96197.88;4925915;29;20291;-79
2022/06/14 01:07:32;;;;;;;9.53;4.30;;;;;;;12.63;68.03;96196.53;4911615;29;20193;-80
2022/06/14 01:10:04;;;;;;;6.37;4.10;;;;;;;12.66;68.58;96193.63;4927959;29;20193;-79
2022/06/14 01:12:32;;;;;;;6.17;3.93;;;;;;;12.57;68.78;96197.09;4911093;29;20666;-80
2022/06/14 01:15:06;;;;;;;5.50;3.93;;;;;;;12.60;68.54;96195.97;4909397;29;20224;-80
2022/06/14 01:17:35;;;;;;;8.77;4.30;;;;;;;12.54;68.65;96194.75;4944046;29;20252;-78
2022/06/14 01:20:00;;;;;;;8.57;4.50;;;;;;;12.33;69.25;96195.00;4925541;29;20217;-79
2022/06/14 01:22:28;;;;;;;5.03;3.47;;;;;;;12.34;69.21;96188.81;4910460;29;20193;-80
2022/06/14 01:24:54;;;;;;;6.00;3.93;;;;;;;12.34;69.31;96191.41;4907218;29;20186;-79
2022/06/14 01:27:20;;;;;;;7.73;4.27;;;;;;;12.29;69.32;96182.41;4907936;29;20197;-79
2022/06/14 01:29:50;;;;;;;7.33;3.70;;;;;;;12.26;69.50;96182.66;4907999;29;20208;-79
2022/06/14 01:32:17;;;;;;;6.03;4.03;;;;;;;12.22;70.00;96178.72;4908713;29;20186;-79
2022/06/14 01:34:50;;;;;;;9.77;3.97;;;;;;;12.25;69.64;96175.81;4924306;29;20545;-79
2022/06/14 01:37:16;;;;;;;9.80;4.27;;;;;;;12.15;69.74;96176.69;4924894;29;20181;-79
2022/06/14 01:39:41;;;;;;;9.70;4.47;;;;;;;12.12;69.64;96171.78;4909036;29;20234;-79
2022/06/14 01:42:25;;;;;;;6.70;3.97;;;;;;;12.11;69.98;96175.34;4908299;29;20669;-80
2022/06/14 01:45:07;;;;;;;5.33;3.47;;;;;;;12.16;69.67;96180.09;4923585;29;20654;-80
2022/06/14 01:47:44;;;;;;;6.93;4.23;;;;;;;12.11;69.86;96175.34;4914814;29;20181;-79
2022/06/14 01:53:21;;;;;;;9.83;4.00;;;;;;;12.11;70.19;96177.13;4960601;28;20200;-78
2022/06/14 01:56:01;;;;;;;5.77;4.07;;;;;;;12.09;69.75;96177.22;4928135;28;20170;-79
2022/06/14 01:58:35;;;;;;;6.10;3.90;;;;;;;12.11;69.79;96179.72;4923027;29;20218;-80
2022/06/14 02:01:24;;;;;;;8.80;4.10;;;;;;;12.03;69.76;96180.44;4922503;29;20213;-81
2022/06/14 02:06:50;;;;;;;6.43;3.70;;;;;;;11.97;70.10;96178.38;4923730;29;20276;-78
2022/06/14 02:09:19;;;;;;;8.00;4.00;;;;;;;11.90;70.17;96178.09;4921350;29;20221;-80
2022/06/14 02:11:44;;;;;;;8.83;3.97;;;;;;;11.89;70.06;96168.66;4905191;29;20221;-79
2022/06/14 02:14:16;;;;;;;6.13;3.80;;;;;;;11.93;69.66;96166.63;4902513;29;20192;-78
2022/06/14 02:16:46;;;;;;;5.70;3.40;;;;;;;11.93;69.57;96169.22;4937318;29;20210;-79
2022/06/14 02:19:22;;;;;;;6.00;3.20;;;;;;;11.92;69.54;96164.94;4938968;29;20213;-79
2022/06/14 02:21:51;;;;;;;5.07;3.47;;;;;;;11.91;69.49;96163.31;4908921;29;20193;-79
2022/06/14 02:24:25;;;;;;;7.43;4.17;;;;;;;11.92;69.75;96167.56;4904495;29;20189;-79
2022/06/14 02:26:59;;;;;;;6.30;3.63;;;;;;;11.84;69.68;96167.47;4920970;29;20279;-79
2022/06/14 02:29:30;;;;;;;8.77;3.90;;;;;;;11.80;69.65;96163.47;4904181;29;20205;-79
2022/06/14 02:31:59;;;;;;;9.03;4.03;;;;;;;11.79;69.73;96162.63;4905114;29;20213;-80
2022/06/14 02:34:28;;;;;;;6.47;3.50;;;;;;;11.71;69.67;96166.88;4904525;29;20218;-79
2022/06/14 02:37:09;;;;;;;7.90;3.73;;;;;;;11.69;69.68;96169.63;4905424;29;20194;-80
2022/06/14 02:39:38;;;;;;;5.13;3.30;;;;;;;11.71;69.84;96164.28;4919323;29;20286;-79
2022/06/14 02:42:16;;;;;;;7.40;3.30;;;;;;;11.71;69.87;96167.72;4933257;29;20181;-80
2022/06/14 02:45:04;;;;;;;4.50;3.13;;;;;;;11.71;69.64;96161.69;4930038;29;20182;-80
2022/06/14 02:47:39;;;;;;;6.43;3.40;;;;;;;11.58;70.02;96170.63;4928949;29;20194;-80
2022/06/14 02:50:16;;;;;;;7.37;3.37;;;;;;;11.56;69.88;96161.28;4912763;29;20272;-80
2022/06/14 02:53:07;;;;;;;6.97;3.60;;;;;;;11.55;69.95;96160.47;4912001;29;20337;-80
2022/06/14 02:55:47;;;;;;;7.03;3.50;;;;;;;11.52;70.01;96165.13;4926079;29;20182;-80
2022/06/14 02:58:26;;;;;;;8.43;3.93;;;;;;;11.46;69.80;96163.91;4926993;29;20686;-80
2022/06/14 03:01:00;;;;;;;4.67;3.30;;;;;;;11.40;70.65;96154.06;4926381;29;20213;-80
2022/06/14 03:03:39;;;;;;;11.03;4.30;;;;;;;11.41;70.22;96158.31;4925856;29;20173;-79
2022/06/14 03:06:19;;;;;;;5.90;3.70;;;;;;;11.40;70.46;96161.03;4926681;29;20173;-79
2022/06/14 03:08:56;;;;;;;6.17;3.33;;;;;;;11.40;70.54;96161.03;4907385;29;20213;-80
2022/06/14 03:11:50;;;;;;;4.83;3.00;;;;;;;11.41;70.39;96160.91;4922936;29;20193;-80
2022/06/14 03:14:38;;;;;;;6.93;3.80;;;;;;;11.35;71.32;96167.47;4937632;29;20177;-78
2022/06/14 03:17:23;;;;;;;5.80;3.40;;;;;;;11.38;70.79;96158.56;4921840;29;20186;-78
2022/06/14 03:19:58;;;;;;;10.63;3.80;;;;;;;11.39;70.95;96159.38;4938143;29;20268;-77
2022/06/14 03:22:33;;;;;;;6.73;3.60;;;;;;;11.37;70.41;96162.13;4938843;29;20181;-78
2022/06/14 03:25:03;;;;;;;6.50;3.70;;;;;;;11.38;70.48;96160.34;4919618;29;20185;-78
2022/06/14 03:27:40;;;;;;;5.33;3.83;;;;;;;11.38;70.68;96157.75;4919991;29;20666;-80
2022/06/14 03:30:21;;;;;;;5.57;4.00;;;;;;;11.40;70.48;96151.47;4937612;29;20169;-80
2022/06/14 03:33:00;;;;;;;7.00;3.50;;;;;;;11.44;70.26;96157.19;4921443;29;20290;-81
2022/06/14 03:35:26;;;;;;;4.50;3.30;;;;;;;11.57;69.71;96155.97;4908151;29;20221;-79
2022/06/14 03:37:52;;;;;;;6.90;3.50;;;;;;;11.66;69.15;96150.88;4923191;29;20213;-78
2022/06/14 03:40:18;;;;;;;5.10;3.30;;;;;;;11.69;69.38;96156.63;4907323;29;20233;-80
2022/06/14 03:42:44;;;;;;;10.90;3.93;;;;;;;11.76;69.14;96160.31;4922289;29;20272;-81
2022/06/14 03:45:11;;;;;;;5.30;3.70;;;;;;;11.85;69.03;96148.28;4939918;29;20221;-80
2022/06/14 03:47:36;;;;;;;5.57;3.20;;;;;;;11.95;68.89;96161.25;4922247;29;20190;-79
2022/06/14 03:50:12;;;;;;;5.23;3.20;;;;;;;11.97;69.28;96156.72;4921984;29;20629;-79
2022/06/14 03:53:02;;;;;;;7.33;3.83;;;;;;;12.75;65.73;96166.69;4922129;29;20209;-80
2022/06/14 03:56:01;;;;;;;3.73;3.00;;;;;;;13.78;61.42;96157.56;4942316;28;20263;-78
2022/06/14 03:58:42;;;;;;;5.97;3.20;;;;;;;15.02;57.55;96153.63;4936809;28;20212;-77
2022/06/14 04:01:24;;;;;;;11.63;3.90;;;;;;;15.89;53.73;96156.59;4940073;29;20744;-77
2022/06/14 04:04:17;;;;;;;7.43;2.93;;;;;;;16.83;51.38;96160.31;4926453;29;20220;-77
2022/06/14 04:07:09;;;;;;;4.18;2.60;;;;;;;17.55;48.91;96156.41;4942446;29;20189;-80
2022/06/14 04:10:12;;;;;;;5.00;2.85;;;;;;;18.47;46.05;96152.81;4926920;29;20204;-79
2022/06/14 04:12:38;;;;;;;3.63;2.65;;;;;;;19.21;44.95;96154.34;4944425;29;20256;-78
2022/06/14 04:15:29;;;;;;;6.88;2.80;;;;;;;19.90;43.59;96155.63;4946054;29;20212;-79
2022/06/14 04:21:02;;;;;;;4.60;2.80;;;;;;;20.65;40.51;96160.19;4949620;29;20215;-80
2022/06/14 04:23:48;;;;;;;6.78;2.72;;;;;;;20.66;40.47;96159.16;4943703;29;20207;-79
2022/06/14 04:26:39;;;;;;;6.40;2.60;;;;;;;21.03;39.58;96163.22;4927646;29;20685;-80
2022/06/14 04:29:11;;;;;;;6.68;2.67;;;;;;;21.35;39.65;96163.53;4941328;29;20204;-81
2022/06/14 04:31:42;;;;;;;5.07;2.53;;;;;;;21.21;40.52;96167.94;4940776;29;20181;-80
2022/06/14 04:34:17;;;;;;;4.15;2.67;;;;;;;21.94;38.22;96168.09;4924938;29;20267;-79
2022/06/14 04:36:47;;;;;;;5.70;2.60;;;;;;;22.48;36.85;96164.41;4924187;29;20177;-79
2022/06/14 04:39:18;;;;;;;3.90;2.15;;;;;;;23.01;36.51;96164.25;4923473;29;20644;-79
2022/06/14 04:42:00;;;;;;;3.63;2.13;;;;;;;23.17;36.38;96166.44;4939411;29;20185;-79
2022/06/14 04:44:37;;;;;;;7.38;2.72;;;;;;;24.04;35.03;96166.72;4922801;29;20185;-79
2022/06/14 04:47:09;;;;;;;4.20;2.60;;;;;;;24.57;34.02;96165.22;4939492;29;20181;-80
2022/06/14 04:49:41;;;;;;;5.07;2.60;;;;;;;24.94;31.95;96170.53;4924047;29;20688;-78
2022/06/14 04:52:23;;;;;;;8.48;2.72;;;;;;;25.73;31.41;96167.94;4939696;29;20733;-78
2022/06/14 04:55:03;;;;;;;6.88;2.40;;;;;;;27.30;27.99;96162.69;4924121;29;20189;-77
2022/06/14 04:57:37;;;;;;;4.35;2.60;;;;;;;26.22;28.63;96172.03;4940409;29;20169;-77
2022/06/14 05:00:08;;;;;;;3.25;2.67;;;;;;;28.07;26.39;96167.50;4940135;29;20201;-79
2022/06/14 05:02:36;;;;;;;7.22;2.83;;;;;;;26.93;26.70;96162.16;4924744;29;20182;-78
2022/06/14 05:05:07;;;;;;;4.68;2.67;;;;;;;27.27;26.93;96155.94;4939090;29;20186;-79
2022/06/14 05:07:42;;;;;;;5.25;2.90;;;;;;;27.91;25.44;96153.91;4956875;29;20184;-78
2022/06/14 05:10:12;;;;;;;5.00;2.80;;;;;;;28.31;24.62;96157.50;4940101;29;20168;-78
2022/06/14 05:12:52;;;;;;;5.38;3.10;;;;;;;27.73;24.94;96156.81;4924333;29;20177;-78
2022/06/14 05:15:28;;;;;;;4.68;2.58;;;;;;;28.07;24.83;96156.84;4939683;29;20181;-79
2022/06/14 05:17:57;;;;;;;3.58;2.25;;;;;;;29.06;23.79;96163.09;4939240;29;20585;-78
2022/06/14 05:20:40;;;;;;;6.93;2.83;;;;;;;28.48;24.41;96159.09;4939839;29;20217;-78
2022/06/14 05:23:14;;;;;;;7.03;2.47;;;;;;;29.39;23.69;96158.66;4957008;28;20188;-79
2022/06/14 05:25:46;;;;;;;6.55;2.95;;;;;;;29.55;22.75;96160.47;4939145;29;20678;-79
2022/06/14 05:28:14;;;;;;;5.15;2.65;;;;;;;29.50;22.76;96171.09;4939710;29;20197;-79
2022/06/14 05:31:01;;;;;;;5.15;2.50;;;;;;;30.62;21.75;96172.03;4939936;29;20182;-79
2022/06/14 05:33:38;;;;;;;6.25;2.50;;;;;;;29.31;23.26;96161.75;4939815;29;20687;-79
2022/06/14 05:36:11;;;;;;;4.05;2.10;;;;;;;30.41;22.56;96167.63;4923592;29;20196;-78
2022/06/14 05:39:01;;;;;;;5.85;2.42;;;;;;;29.38;22.98;96162.38;4939623;29;20201;-78
2022/06/14 05:41:42;;;;;;;4.88;2.80;;;;;;;30.35;21.43;96163.28;4923703;29;20569;-78
2022/06/14 05:44:19;;;;;;;4.13;2.45;;;;;;;32.05;19.89;96159.13;4938943;29;20232;-78
2022/06/14 05:46:49;;;;;;;5.60;2.80;;;;;;;30.39;21.37;96164.38;4923295;29;20599;-78
2022/06/14 05:49:18;;;;;;;9.82;3.05;;;;;;;29.76;22.36;96152.63;4939216;29;20203;-78
2022/06/14 05:52:07;;;;;;;7.50;3.10;;;;;;;30.42;21.81;96169.25;4923263;29;20208;-79
2022/06/14 05:54:38;;;;;;;6.15;3.03;;;;;;;30.57;21.20;96169.34;4938655;29;20170;-79
2022/06/14 05:57:32;;;;;;;6.82;3.25;;;;;;;29.39;22.93;96163.19;4939332;29;20173;-78
2022/06/14 06:00:02;;;;;;;6.15;3.13;;;;;;;31.25;20.86;96170.25;4939436;29;20206;-78
2022/06/14 06:02:39;;;;;;;7.63;3.25;;;;;;;32.57;19.30;96174.97;4924731;29;20188;-79
2022/06/14 06:05:21;;;;;;;7.32;3.38;;;;;;;32.26;19.22;96168.81;4938497;29;20177;-78
2022/06/14 06:07:52;;;;;;;4.65;2.92;;;;;;;30.58;21.46;96170.16;4939101;29;20225;-78
2022/06/14 06:10:23;;;;;;;5.50;2.58;;;;;;;30.07;22.60;96170.59;4923140;29;20555;-78
2022/06/14 06:12:53;;;;;;;6.10;2.90;;;;;;;31.30;21.70;96166.78;4939435;29;20641;-78
2022/06/14 06:15:25;;;;;;;5.30;2.67;;;;;;;31.33;20.80;96166.25;4938771;29;20686;-78
2022/06/14 06:17:53;;;;;;;5.70;3.00;;;;;;;31.95;20.84;96165.31;4922596;29;20239;-78
2022/06/14 06:20:19;;;;;;;6.80;3.40;;;;;;;31.60;20.67;96167.94;4938570;29;20584;-79
2022/06/14 06:22:52;;;;;;;5.23;3.17;;;;;;;30.39;22.54;96169.75;4956555;29;20262;-78
2022/06/14 06:25:21;;;;;;;5.68;2.97;;;;;;;28.35;25.26;96159.44;4922523;29;20425;-78
2022/06/14 06:28:06;;;;;;;5.50;2.70;;;;;;;32.20;20.89;96172.56;4938746;29;20675;-78
2022/06/14 06:30:35;;;;;;;7.07;3.13;;;;;;;30.48;22.42;96173.59;4938539;29;20208;-79
2022/06/14 06:33:01;;;;;;;5.55;2.97;;;;;;;30.48;21.38;96170.91;4938482;29;20178;-78
2022/06/14 06:35:41;;;;;;;6.30;2.80;;;;;;;31.52;20.31;96169.25;4937241;29;20209;-78
2022/06/14 06:38:24;;;;;;;6.30;3.08;;;;;;;30.50;21.35;96174.13;4938716;29;20232;-78
2022/06/14 06:43:40;;;;;;;6.53;2.90;;;;;;;30.22;22.10;96177.16;4941162;29;20276;-78
2022/06/14 06:46:09;;;;;;;7.03;3.50;;;;;;;30.91;20.90;96171.69;4922160;29;20276;-78
2022/06/14 06:48:39;;;;;;;7.97;3.28;;;;;;;29.03;23.93;96166.25;4922482;29;20205;-78
2022/06/14 06:51:08;;;;;;;4.70;3.20;;;;;;;30.28;21.61;96174.22;4922402;29;20196;-77
2022/06/14 06:53:41;;;;;;;7.38;3.85;;;;;;;30.10;22.58;96166.59;4938037;29;20173;-78
2022/06/14 06:56:21;;;;;;;6.10;3.00;;;;;;;31.50;20.72;96166.03;4938098;29;20184;-78
2022/06/14 06:58:56;;;;;;;5.53;3.00;;;;;;;29.05;23.90;96163.34;4922210;29;20474;-78
2022/06/14 07:01:25;;;;;;;6.35;3.00;;;;;;;30.93;21.95;96164.22;4938233;29;20180;-77
2022/06/14 07:03:58;;;;;;;6.25;3.20;;;;;;;30.54;21.92;96164.50;4937338;29;20653;-78
2022/06/14 07:06:53;;;;;;;6.38;3.28;;;;;;;30.59;21.66;96158.38;4938322;29;20554;-78
2022/06/14 07:09:39;;;;;;;5.30;3.35;;;;;;;31.20;20.35;96167.53;4937813;29;20689;-78
2022/06/14 07:12:15;;;;;;;5.47;3.65;;;;;;;29.14;23.52;96161.03;4937933;29;20205;-78
2022/06/14 07:14:57;;;;;;;6.65;3.45;;;;;;;29.81;22.78;96166.06;4921426;29;20206;-77
2022/06/14 07:17:42;;;;;;;8.75;3.75;;;;;;;28.36;24.78;96158.41;4933193;29;20184;-77
2022/06/14 07:20:28;;;;;;;4.70;2.80;;;;;;;30.25;23.16;96160.56;4941011;29;20193;-79
2022/06/14 07:23:00;;;;;;;6.53;3.40;;;;;;;30.46;22.73;96170.34;4940330;29;20231;-79
2022/06/14 07:25:30;;;;;;;5.32;2.97;;;;;;;29.30;24.13;96163.63;4923325;29;20530;-78
2022/06/14 07:28:04;;;;;;;7.75;3.78;;;;;;;28.13;25.11;96164.69;4938535;29;20169;-78
2022/06/14 07:30:37;;;;;;;6.28;3.72;;;;;;;28.42;24.83;96159.25;4955447;29;20176;-77
2022/06/14 07:33:03;;;;;;;4.55;3.60;;;;;;;28.61;25.09;96159.78;4923865;29;20181;-77
2022/06/14 07:35:44;;;;;;;7.97;4.60;;;;;;;29.10;23.43;96163.41;4923831;29;20692;-79
2022/06/14 07:38:21;;;;;;;6.25;3.75;;;;;;;28.07;25.15;96162.16;4940783;29;20193;-78
2022/06/14 07:40:51;;;;;;;4.97;4.07;;;;;;;28.30;24.74;96164.72;4947394;29;20201;-78
2022/06/14 07:43:28;;;;;;;8.80;3.53;;;;;;;27.70;25.42;96159.97;4938749;29;20176;-78
2022/06/14 07:45:58;;;;;;;4.20;2.75;;;;;;;28.20;25.10;96167.19;4954469;28;20300;-78
2022/06/14 07:48:40;;;;;;;6.25;3.60;;;;;;;27.48;26.99;96156.34;4922526;29;20209;-78
2022/06/14 07:51:11;;;;;;;4.57;3.55;;;;;;;27.34;26.99;96155.81;4938517;29;20561;-78
2022/06/14 07:54:08;;;;;;;5.57;3.85;;;;;;;27.60;27.42;96160.56;4938161;29;20184;-79
2022/06/14 07:56:46;;;;;;;7.07;3.00;;;;;;;28.04;26.75;96157.31;4954215;29;20189;-78
2022/06/14 07:59:14;;;;;;;6.63;3.90;;;;;;;27.91;26.96;96153.91;4937991;29;20200;-78
2022/06/14 08:02:00;;;;;;;8.57;3.70;;;;;;;27.21;27.80;96154.25;4937848;29;20719;-78
2022/06/14 08:04:32;;;;;;;5.25;3.40;;;;;;;27.11;27.27;96154.03;4921490;29;20185;-78
2022/06/14 08:07:04;;;;;;;5.43;3.50;;;;;;;26.61;28.52;96153.78;4938684;29;20680;-79
2022/06/14 08:09:58;;;;;;;9.52;3.15;;;;;;;27.01;26.98;96154.63;4922020;29;20263;-78
2022/06/14 08:12:35;;;;;;;9.48;3.88;;;;;;;25.94;29.54;96149.56;4955833;29;20653;-78
2022/06/14 08:15:05;;;;;;;6.25;3.42;;;;;;;26.15;28.45;96150.88;4937971;29;20263;-78
2022/06/14 08:17:38;;;;;;;8.80;3.70;;;;;;;26.25;27.93;96143.13;4954411;29;20586;-78
2022/06/14 08:20:46;;;;;;;5.50;3.45;;;;;;;25.49;29.72;96151.88;4922181;29;20205;-78
2022/06/14 08:23:30;;;;;;;7.80;3.47;;;;;;;25.69;30.31;96152.38;4895863;29;20183;-78
2022/06/14 08:26:18;;;;;;;7.30;3.50;;;;;;;25.76;30.02;96152.31;4879110;29;20210;-78
2022/06/14 08:28:52;;;;;;;7.53;3.78;;;;;;;25.79;29.55;96151.84;4879996;29;20306;-78
2022/06/14 08:31:30;;;;;;;6.85;3.72;;;;;;;25.28;29.94;96155.03;4895893;29;20179;-78
2022/06/14 08:34:08;;;;;;;6.10;3.58;;;;;;;24.95;31.03;96150.09;4863737;29;20283;-79
2022/06/14 08:36:46;;;;;;;8.10;3.63;;;;;;;24.82;30.73;96145.75;4879500;29;20206;-78
2022/06/14 08:39:28;;;;;;;6.00;3.63;;;;;;;24.51;31.79;96146.72;4879768;29;20755;-78
2022/06/14 08:41:59;;;;;;;6.35;4.03;;;;;;;24.19;33.48;96140.66;4879677;29;20548;-78
2022/06/14 08:44:33;;;;;;;10.07;3.60;;;;;;;24.47;32.84;96141.03;4863894;29;20187;-78
2022/06/14 08:47:07;;;;;;;6.10;3.53;;;;;;;24.13;33.42;96145.00;4880047;29;20746;-79
2022/06/14 08:49:45;;;;;;;7.55;3.90;;;;;;;24.29;32.28;96140.97;4879200;29;20207;-78
2022/06/14 08:52:32;;;;;;;6.05;3.53;;;;;;;23.16;35.42;96130.38;4864108;29;20203;-79
2022/06/14 08:55:03;;;;;;;6.95;3.83;;;;;;;23.99;32.99;96131.03;4949252;29;20627;-78
2022/06/14 08:57:45;;;;;;;8.57;3.90;;;;;;;23.63;33.90;96125.63;4937763;29;20173;-78
2022/06/14 09:00:19;;;;;;;9.65;3.67;;;;;;;23.32;34.19;96121.94;4940818;29;20209;-78
2022/06/14 09:02:54;;;;;;;7.13;3.25;;;;;;;23.99;34.68;96115.13;4940974;29;20173;-78
2022/06/14 09:06:01;;;;;;;8.63;3.40;;;;;;;24.00;33.34;96113.28;4940581;29;20206;-77
2022/06/14 09:09:00;;;;;;;6.80;3.53;;;;;;;24.01;32.12;96118.34;4912230;29;20748;-77
2022/06/14 09:11:51;;;;;;;5.97;3.53;;;;;;;24.15;33.11;96119.06;4940148;29;20185;-78
2022/06/14 09:14:55;;;;;;;8.85;3.10;;;;;;;23.99;32.48;96116.97;4939255;29;20192;-78
2022/06/14 09:18:01;;;;;;;5.22;3.58;;;;;;;23.86;32.81;96109.13;4922992;29;20177;-77
2022/06/14 09:20:59;;;;;;;7.35;3.33;;;;;;;23.84;32.13;96122.59;4939507;29;20211;-77
2022/06/14 09:24:04;;;;;;;7.63;3.00;;;;;;;24.65;31.26;96120.81;4923837;29;20197;-77
2022/06/14 09:26:44;;;;;;;7.03;4.28;;;;;;;24.55;32.33;96119.47;4956895;29;20638;-76
2022/06/14 09:29:25;;;;;;;6.90;3.67;;;;;;;24.90;31.07;96118.88;4939645;29;20247;-76
2022/06/14 09:32:17;;;;;;;5.57;3.10;;;;;;;24.08;33.02;96112.19;4957023;29;20657;-78
2022/06/14 09:35:01;;;;;;;8.45;3.60;;;;;;;24.39;32.01;96112.13;4955845;29;20213;-77
2022/06/14 09:37:39;;;;;;;7.70;3.47;;;;;;;23.97;32.36;96105.75;4939224;29;20725;-78
2022/06/14 09:40:27;;;;;;;5.28;3.20;;;;;;;23.88;33.01;96099.91;4939381;29;20228;-77
2022/06/14 09:43:21;;;;;;;5.97;3.72;;;;;;;24.05;29.92;96097.53;4923565;29;20181;-77
2022/06/14 09:46:01;;;;;;;7.30;2.97;;;;;;;23.32;33.32;96089.28;4955609;29;20173;-78
2022/06/14 09:48:44;;;;;;;6.80;3.33;;;;;;;24.55;32.49;96089.47;4939468;29;20199;-77
2022/06/14 09:51:46;;;;;;;8.57;3.72;;;;;;;24.54;33.26;96088.66;4939514;29;20181;-78
2022/06/14 09:54:30;;;;;;;7.93;4.03;;;;;;;24.33;33.29;96086.47;4938502;29;20192;-77
2022/06/14 09:57:37;;;;;;;7.82;3.65;;;;;;;24.82;32.13;96084.66;4956359;29;20181;-78
2022/06/14 10:00:14;;;;;;;6.15;3.20;;;;;;;24.27;30.04;96090.75;4881183;29;20758;-77
2022/06/14 10:03:12;;;;;;;10.63;4.53;;;;;;;24.35;32.42;96092.34;4881157;29;20198;-78
2022/06/14 10:05:53;;;;;;;4.80;3.88;;;;;;;24.15;32.64;96091.72;4880683;29;20592;-77
2022/06/14 10:08:48;;;;;;;5.93;4.40;;;;;;;23.39;33.82;96088.22;4896879;29;20295;-77
2022/06/14 10:11:34;;;;;;;8.82;4.28;;;;;;;22.90;35.48;96083.66;4897635;29;20180;-78
2022/06/14 10:14:16;;;;;;;6.72;3.88;;;;;;;23.39;33.39;96087.41;4880296;29;20199;-78
2022/06/14 10:16:53;;;;;;;8.32;4.75;;;;;;;23.83;34.18;96081.19;4895872;29;20191;-78
2022/06/14 10:19:43;;;;;;;6.15;4.53;;;;;;;22.66;36.65;96082.50;4881163;29;20199;-78
2022/06/14 10:22:15;;;;;;;5.93;3.95;;;;;;;23.93;33.93;96073.53;4880717;29;20627;-77
2022/06/14 10:24:46;;;;;;;6.25;3.70;;;;;;;23.45;34.58;96076.78;4880433;29;20183;-78
2022/06/14 10:30:58;;;;;;;9.93;4.63;;;;;;;24.73;31.60;96078.03;4896482;29;20616;-77
2022/06/14 10:33:35;;;;;;;10.45;4.32;;;;;;;23.29;33.14;96079.13;4912377;29;20197;-78
2022/06/14 10:36:16;;;;;;;8.43;4.70;;;;;;;23.37;33.88;96081.53;4955350;29;20185;-78
2022/06/14 10:39:12;;;;;;;9.55;4.63;;;;;;;23.33;34.63;96075.84;4938890;29;20193;-77
2022/06/14 10:42:06;;;;;;;9.50;4.20;;;;;;;23.58;34.29;96075.03;4955720;29;20189;-78
2022/06/14 10:44:43;;;;;;;10.27;4.10;;;;;;;23.68;34.45;96064.81;4938933;29;20177;-78
2022/06/14 10:47:28;;;;;;;7.07;4.05;;;;;;;24.02;35.19;96064.28;4939120;29;20264;-77
2022/06/14 10:50:17;;;;;;;10.10;4.80;;;;;;;23.65;34.16;96060.72;4955189;29;20217;-78
2022/06/14 10:53:13;;;;;;;5.55;4.07;;;;;;;23.99;33.27;96067.38;4938653;29;20280;-79
2022/06/14 10:55:52;;;;;;;9.00;4.32;;;;;;;24.65;33.02;96065.03;4938276;29;20666;-79
2022/06/14 10:58:34;;;;;;;7.95;4.20;;;;;;;24.72;33.13;96063.94;4938293;29;20197;-78
2022/06/14 11:01:15;;;;;;;8.95;4.72;;;;;;;24.75;31.85;96057.38;4938160;29;21134;-78
2022/06/14 11:04:02;;;;;;;8.32;3.80;;;;;;;24.96;30.31;96056.88;4922101;29;20557;-79
2022/06/14 11:06:57;;;;;;;6.20;3.70;;;;;;;24.27;31.54;96053.59;4955337;29;20177;-77
2022/06/14 11:09:41;;;;;;;7.70;3.80;;;;;;;24.88;32.61;96056.38;4938052;29;20681;-77
2022/06/14 11:12:33;;;;;;;8.38;4.07;;;;;;;24.42;32.00;96050.63;4955297;29;20205;-78
2022/06/14 11:15:09;;;;;;;6.90;3.70;;;;;;;25.20;31.32;96057.00;4954767;29;20581;-78
2022/06/14 11:18:13;;;;;;;7.60;4.60;;;;;;;24.66;31.10;96056.06;4937049;29;20545;-77
2022/06/14 11:20:45;;;;;;;8.02;3.80;;;;;;;24.56;30.79;96048.63;4954093;28;20565;-78
2022/06/14 11:23:35;;;;;;;6.90;4.65;;;;;;;24.91;29.86;96045.31;4955230;29;20284;-78
2022/06/14 11:26:06;;;;;;;7.10;3.85;;;;;;;25.00;30.50;96042.13;4937788;29;20645;-78
2022/06/14 11:28:46;;;;;;;6.78;4.30;;;;;;;24.84;29.50;96042.75;4921731;29;20559;-78
2022/06/14 11:31:30;;;;;;;7.80;4.22;;;;;;;24.07;31.03;96030.97;4938277;29;20173;-78
2022/06/14 11:34:05;;;;;;;5.97;4.30;;;;;;;24.11;30.39;96030.31;4955186;29;20173;-78
2022/06/14 11:36:44;;;;;;;7.05;4.28;;;;;;;24.45;31.37;96036.09;4955007;29;20622;-78
2022/06/14 11:39:31;;;;;;;7.00;4.35;;;;;;;24.77;31.51;96040.19;4955009;29;20739;-78
2022/06/14 11:42:02;;;;;;;7.63;4.53;;;;;;;24.66;32.05;96032.97;4954401;29;20181;-80
2022/06/14 11:44:47;;;;;;;8.65;3.80;;;;;;;25.00;31.41;96034.16;4921682;29;20213;-79
2022/06/14 11:47:19;;;;;;;6.93;4.03;;;;;;;25.38;29.62;96035.66;4921340;29;20181;-77
2022/06/14 11:49:56;;;;;;;6.68;3.70;;;;;;;25.23;29.92;96024.66;4937567;29;20201;-77
2022/06/14 11:52:33;;;;;;;7.63;4.43;;;;;;;25.07;30.73;96021.59;4938384;29;20184;-78
2022/06/14 11:55:26;;;;;;;6.40;3.35;;;;;;;25.46;30.36;96019.38;4938417;29;20181;-78
2022/06/14 11:58:05;;;;;;;7.57;4.18;;;;;;;25.31;31.07;96026.97;4939062;29;20583;-78
2022/06/14 12:00:54;;;;;;;7.93;4.03;;;;;;;25.77;30.08;96009.47;4938915;29;20719;-77
2022/06/14 12:03:26;;;;;;;7.38;3.80;;;;;;;25.91;29.43;96022.31;4939168;29;20634;-77
2022/06/14 12:06:02;;;;;;;8.75;3.75;;;;;;;25.69;27.04;96007.94;4936746;29;20177;-77
2022/06/14 12:08:55;;;;;;;6.75;3.67;;;;;;;25.64;26.85;96008.66;4955009;29;20197;-78
2022/06/14 12:11:25;;;;;;;5.28;3.60;;;;;;;25.52;29.23;95994.50;4937693;29;20172;-77
2022/06/14 12:13:53;;;;;;;6.43;3.80;;;;;;;25.58;31.12;96001.59;4938378;29;20186;-78
2022/06/14 12:16:33;;;;;;;7.45;4.13;;;;;;;25.50;29.25;95999.25;4937804;29;20575;-77
2022/06/14 12:19:08;;;;;;;7.60;4.00;;;;;;;25.06;29.93;96001.38;4954725;29;20239;-79
2022/06/14 12:21:57;;;;;;;7.25;3.63;;;;;;;25.69;30.81;95998.09;4937403;29;20191;-79
2022/06/14 12:26:34;;;;;;;10.10;3.72;;;;;;;25.79;29.71;95996.75;4936771;29;20181;-78
2022/06/14 12:27:14;;;;;;;4.93;3.38;;;;;;;26.57;28.61;96003.47;4940064;29;20552;-79
2022/06/14 12:29:41;;;;;;;4.85;3.25;;;;;;;25.77;30.91;95994.31;4937883;29;20279;-79
2022/06/14 12:32:22;;;;;;;7.43;3.97;;;;;;;25.87;30.82;95993.75;4921277;29;20200;-80
2022/06/14 12:34:56;;;;;;;5.95;3.80;;;;;;;26.04;28.61;95991.97;4941393;29;20185;-80
2022/06/14 12:37:42;;;;;;;7.15;3.83;;;;;;;26.29;29.12;95990.91;4924706;29;20178;-79
2022/06/14 12:40:16;;;;;;;6.78;3.50;;;;;;;25.90;30.33;95987.97;4941330;29;20609;-80